Time;durP1;ratioP1;P1;durP2;ratioP2;P2;SDS_P1;SDS_P2;PMS_P1;PMS_P2;Temp;Humidity;BMP_temperature;BMP_pressure;BME280_temperature;BME280_humidity;BME280_pressure;Samples;Min_cycle;Max_cycle;Signal;HPM_P1;HPM_P2
2022/06/19 00:00:19;;;;;;;16.73;11.73;;;;;;;-143.84;81.24;45047.16;4929591;28;20455;-75
2022/06/19 00:02:47;;;;;;;14.87;12.43;;;;;;;-143.84;81.69;45066.22;4929753;29;20482;-75
2022/06/19 00:05:16;;;;;;;17.47;13.93;;;;;;;-143.84;82.19;45049.06;4928796;28;20961;-75
2022/06/19 00:07:44;;;;;;;16.80;14.90;;;;;;;-143.84;82.44;45052.88;4929168;28;20482;-75
2022/06/19 00:10:11;;;;;;;22.47;15.90;;;;;;;-143.84;82.76;45049.06;4929115;28;20847;-75
2022/06/19 00:12:39;;;;;;;19.47;15.30;;;;;;;-143.84;82.95;45035.75;4929074;28;20463;-75
2022/06/19 00:15:08;;;;;;;17.73;13.70;;;;;;;-143.84;83.02;45037.66;4929143;28;20452;-75
2022/06/19 00:17:36;;;;;;;15.33;12.90;;;;;;;-143.84;83.09;45071.91;4929263;28;20447;-75
2022/06/19 00:20:05;;;;;;;13.20;11.80;;;;;;;-143.84;83.49;45041.44;4929822;28;20447;-75
2022/06/19 00:22:33;;;;;;;13.23;11.83;;;;;;;-143.84;83.35;45066.22;4912610;28;21103;-75
2022/06/19 00:25:00;;;;;;;22.33;12.00;;;;;;;-143.84;83.53;45018.59;4929339;28;20503;-75
2022/06/19 00:27:27;;;;;;;11.17;10.07;;;;;;;-143.84;83.45;45054.78;4929772;28;20448;-75
2022/06/19 00:29:54;;;;;;;14.53;9.97;;;;;;;-143.84;83.50;45064.31;4929259;28;20450;-75
2022/06/19 00:32:25;;;;;;;11.17;10.07;;;;;;;-143.84;83.63;45066.22;4929122;28;20479;-75
2022/06/19 00:34:54;;;;;;;11.13;9.63;;;;;;;-143.84;83.53;45052.88;4929743;28;20462;-75
2022/06/19 00:37:21;;;;;;;13.70;9.60;;;;;;;-143.84;83.66;45073.81;4930276;28;20469;-75
2022/06/19 00:39:48;;;;;;;12.23;10.40;;;;;;;-143.84;83.49;45052.88;4929862;28;20444;-75
2022/06/19 00:42:16;;;;;;;13.13;9.70;;;;;;;-143.84;83.49;45045.25;4929478;29;20455;-75
2022/06/19 00:44:44;;;;;;;12.23;9.17;;;;;;;-143.84;83.57;45016.69;4929154;29;21238;-75
2022/06/19 00:47:18;;;;;;;19.03;9.47;;;;;;;-143.84;83.43;45070.00;4929739;29;20858;-75
2022/06/19 00:49:51;;;;;;;11.67;9.00;;;;;;;-143.84;82.99;45045.25;4929835;28;20442;-75
2022/06/19 00:52:22;;;;;;;12.33;9.20;;;;;;;-143.84;82.88;45081.44;4929455;29;20540;-75
2022/06/19 00:54:52;;;;;;;13.80;8.90;;;;;;;-143.84;82.44;45041.44;4929263;28;20870;-75
2022/06/19 00:57:21;;;;;;;10.67;8.67;;;;;;;-143.84;82.04;45056.69;4929315;28;20827;-75
2022/06/19 00:59:52;;;;;;;9.30;8.27;;;;;;;-143.84;81.98;45052.88;4928415;28;20505;-75
2022/06/19 01:02:21;;;;;;;9.60;8.60;;;;;;;-143.84;81.40;45056.69;4928203;28;20451;-75
2022/06/19 01:04:51;;;;;;;10.30;7.43;;;;;;;-143.84;81.12;45056.69;4928626;28;20444;-75
2022/06/19 01:07:21;;;;;;;8.20;7.17;;;;;;;-143.84;80.99;45030.03;4928778;29;21422;-75
2022/06/19 01:09:49;;;;;;;8.43;7.63;;;;;;;-143.84;80.57;45062.41;4929522;28;20494;-75
2022/06/19 01:12:16;;;;;;;13.13;6.87;;;;;;;-143.84;80.42;45056.69;4928359;28;20521;-74
2022/06/19 01:14:45;;;;;;;8.13;7.30;;;;;;;-143.84;79.93;45092.88;4928805;28;20447;-75
2022/06/19 01:17:15;;;;;;;7.23;6.53;;;;;;;-143.84;79.65;45075.72;4929313;28;20876;-75
2022/06/19 01:19:44;;;;;;;9.60;6.20;;;;;;;-143.84;78.90;45052.88;4929144;28;20832;-75
2022/06/19 01:22:23;;;;;;;6.40;5.30;;;;;;;-143.84;78.17;45056.69;5012003;28;20482;-75
2022/06/19 01:25:01;;;;;;;7.10;4.70;;;;;;;-143.84;77.88;45056.69;5028684;28;20562;-75
2022/06/19 01:30:33;;;;;;;5.00;4.70;;;;;;;-143.84;76.75;45068.13;4966738;28;21150;-75
2022/06/19 01:33:02;;;;;;;7.10;5.63;;;;;;;-143.84;76.52;45043.34;4966804;28;20442;-75
2022/06/19 01:35:33;;;;;;;5.00;4.27;;;;;;;-143.84;75.76;45073.81;4997419;28;20969;-75
2022/06/19 01:38:08;;;;;;;7.50;4.60;;;;;;;-143.84;75.41;45033.84;5032172;28;20443;-74
2022/06/19 01:40:38;;;;;;;5.37;4.80;;;;;;;-143.84;74.91;45060.50;5032776;28;20457;-75
2022/06/19 01:43:05;;;;;;;7.43;5.20;;;;;;;-143.84;74.58;45062.41;5032601;28;20439;-75
2022/06/19 01:45:33;;;;;;;13.27;5.03;;;;;;;-143.84;74.50;45071.91;5032272;28;20442;-75
2022/06/19 01:48:01;;;;;;;4.90;4.50;;;;;;;-143.84;73.99;45075.72;5032512;28;20485;-75
2022/06/19 01:50:31;;;;;;;5.33;4.83;;;;;;;-143.84;73.67;45062.41;4932325;28;20447;-75
2022/06/19 01:53:06;;;;;;;5.60;4.60;;;;;;;-143.84;73.36;45031.94;4930714;29;20873;-75
2022/06/19 01:55:33;;;;;;;6.10;4.00;;;;;;;-143.84;73.12;45047.16;4931960;28;20434;-75
2022/06/19 01:58:03;;;;;;;6.30;4.10;;;;;;;-143.84;72.50;45150.00;4931992;28;20945;-75
2022/06/19 02:00:34;;;;;;;5.00;4.50;;;;;;;-143.84;72.57;45058.59;4931576;28;21235;-75
2022/06/19 02:03:08;;;;;;;9.23;4.57;;;;;;;-143.84;72.73;45052.88;4931188;28;20965;-75
2022/06/19 02:05:39;;;;;;;11.23;3.90;;;;;;;-143.84;72.85;45050.97;4979548;28;20511;-75
2022/06/19 02:08:07;;;;;;;9.50;4.57;;;;;;;-143.84;72.51;45045.25;4931490;28;20443;-75
2022/06/19 02:10:36;;;;;;;5.07;4.33;;;;;;;-143.84;72.44;45060.50;4931919;28;20486;-75
2022/06/19 02:13:05;;;;;;;4.30;4.00;;;;;;;-143.84;72.21;45049.06;4932011;28;20513;-75
2022/06/19 02:15:33;;;;;;;4.40;4.00;;;;;;;-143.84;72.20;45052.88;4932034;28;20471;-74
2022/06/19 02:18:02;;;;;;;4.40;4.10;;;;;;;-143.84;72.25;45058.59;4931641;29;20442;-75
2022/06/19 02:20:30;;;;;;;4.60;4.20;;;;;;;-143.84;72.20;45062.41;5030895;28;20925;-75
2022/06/19 02:22:57;;;;;;;6.53;4.50;;;;;;;-143.84;72.19;45056.69;5031647;28;20450;-75
2022/06/19 02:25:24;;;;;;;4.60;3.73;;;;;;;-143.84;72.58;45066.22;5031966;28;20446;-75
2022/06/19 02:27:53;;;;;;;4.70;4.40;;;;;;;-143.84;72.33;45073.81;5031014;28;20451;-75
2022/06/19 02:30:22;;;;;;;7.40;4.10;;;;;;;-143.84;72.03;45052.88;5031381;28;20450;-75
2022/06/19 02:32:52;;;;;;;4.57;4.13;;;;;;;-143.84;72.16;45050.97;5031534;28;20482;-75
2022/06/19 02:35:22;;;;;;;4.30;3.50;;;;;;;-143.84;72.28;45056.69;5031564;28;20445;-75
2022/06/19 02:37:51;;;;;;;4.30;4.00;;;;;;;-143.84;72.22;45043.34;5031442;28;20454;-75
2022/06/19 02:40:31;;;;;;;6.50;4.00;;;;;;;-143.84;72.20;45070.00;5031601;28;20442;-75
2022/06/19 02:42:58;;;;;;;5.47;3.50;;;;;;;-143.84;72.43;45081.44;5031671;28;20945;-75
2022/06/19 02:45:30;;;;;;;5.63;3.70;;;;;;;-143.84;72.37;45079.53;5031360;28;20435;-75
2022/06/19 02:47:59;;;;;;;4.50;4.10;;;;;;;-143.84;72.41;45050.97;5030366;28;20455;-75
2022/06/19 02:50:28;;;;;;;5.17;3.50;;;;;;;-143.84;72.48;45071.91;5031360;28;20450;-75
2022/06/19 02:52:56;;;;;;;4.43;3.50;;;;;;;-143.84;72.37;45073.81;5031419;28;20853;-75
2022/06/19 02:55:24;;;;;;;6.10;4.13;;;;;;;-143.84;72.22;45050.97;5031113;28;20446;-75
2022/06/19 02:57:52;;;;;;;4.13;3.10;;;;;;;-143.84;72.11;45045.25;5030493;28;20446;-75
2022/06/19 03:00:22;;;;;;;5.87;3.10;;;;;;;-143.84;72.00;45049.06;5030770;28;20478;-74
2022/06/19 03:02:51;;;;;;;4.10;3.80;;;;;;;-143.84;71.81;45062.41;5031370;28;20520;-75
2022/06/19 03:05:21;;;;;;;8.17;3.90;;;;;;;-143.84;71.72;45081.44;5031000;28;20450;-75
2022/06/19 03:07:48;;;;;;;4.47;4.07;;;;;;;-143.84;71.20;45060.50;5030986;28;20446;-75
2022/06/19 03:10:17;;;;;;;7.73;3.57;;;;;;;-143.84;71.45;45079.53;5030692;28;20439;-75
2022/06/19 03:12:46;;;;;;;4.37;3.70;;;;;;;-143.84;71.25;45039.53;5030017;28;20549;-75
2022/06/19 03:15:14;;;;;;;3.63;3.27;;;;;;;-143.84;71.11;45033.84;5030332;28;20450;-75
2022/06/19 03:17:42;;;;;;;3.90;3.43;;;;;;;-143.84;70.74;45050.97;5030132;28;21078;-75
2022/06/19 03:20:14;;;;;;;5.20;4.17;;;;;;;-143.84;70.60;45075.72;5030872;28;20434;-75
2022/06/19 03:22:41;;;;;;;6.87;3.90;;;;;;;-143.84;70.51;45068.13;5030605;28;20478;-75
2022/06/19 03:25:08;;;;;;;4.17;3.77;;;;;;;-143.84;70.51;45041.44;5030279;28;20458;-75
2022/06/19 03:27:35;;;;;;;6.33;4.00;;;;;;;-143.84;70.39;45060.50;5029759;28;20505;-75
2022/06/19 03:30:03;;;;;;;8.27;3.03;;;;;;;-143.84;70.38;45047.16;5030167;28;20948;-75
2022/06/19 03:32:31;;;;;;;8.73;3.90;;;;;;;-143.84;69.85;45068.13;5030219;28;20552;-75
2022/06/19 03:34:58;;;;;;;3.57;3.23;;;;;;;-143.84;69.46;45090.97;5029717;28;20443;-75
2022/06/19 03:37:27;;;;;;;8.30;3.83;;;;;;;-143.84;69.10;45064.31;5029680;28;20454;-75
2022/06/19 03:39:54;;;;;;;3.10;2.90;;;;;;;-143.84;67.64;45039.53;5030018;28;20446;-75
2022/06/19 03:42:21;;;;;;;3.40;3.10;;;;;;;-143.84;65.90;45047.16;5029737;28;20450;-75
2022/06/19 03:44:48;;;;;;;5.50;3.20;;;;;;;-143.84;63.71;45026.22;5029877;28;20446;-75
2022/06/19 03:47:21;;;;;;;3.20;3.00;;;;;;;-143.84;60.27;45079.53;5029551;28;20516;-75
2022/06/19 03:49:48;;;;;;;11.03;2.67;;;;;;;-143.84;56.46;45026.22;5029680;28;20450;-74
2022/06/19 03:52:16;;;;;;;3.63;2.87;;;;;;;-143.84;54.49;45020.50;5029553;28;20892;-75
2022/06/19 03:54:44;;;;;;;4.33;2.90;;;;;;;-143.84;51.50;44978.63;5030078;28;20513;-75
2022/06/19 03:57:13;;;;;;;2.60;2.33;;;;;;;-143.84;49.92;45003.38;5029550;28;20777;-75
2022/06/19 03:59:41;;;;;;;2.20;2.10;;;;;;;-143.84;49.29;44995.75;5029260;28;20472;-75
2022/06/19 04:02:11;;;;;;;7.03;2.90;;;;;;;-143.84;48.40;45005.28;5029375;28;20862;-75
2022/06/19 04:04:39;;;;;;;4.57;2.50;;;;;;;-143.84;47.69;44999.56;5029658;28;20451;-74
2022/06/19 04:07:07;;;;;;;2.60;2.40;;;;;;;-143.84;47.08;44997.66;5029860;28;20437;-74
2022/06/19 04:09:35;;;;;;;4.00;2.93;;;;;;;-143.84;46.55;45020.50;5029883;28;20490;-74
2022/06/19 04:12:04;;;;;;;2.50;2.30;;;;;;;-143.84;46.15;44986.22;5029819;28;20573;-74
2022/06/19 04:14:33;;;;;;;5.30;2.03;;;;;;;-143.84;45.04;44993.84;5029749;28;20473;-74
2022/06/19 04:17:01;;;;;;;8.63;2.53;;;;;;;-143.84;45.10;45007.19;5029871;28;20484;-75
2022/06/19 04:19:29;;;;;;;5.30;2.83;;;;;;;-143.84;44.36;44982.41;5029754;28;20446;-76
2022/06/19 04:21:56;;;;;;;4.07;2.70;;;;;;;-143.84;43.91;44999.56;5029633;28;20479;-75
2022/06/19 04:24:23;;;;;;;4.10;2.10;;;;;;;-143.84;43.56;44982.41;5029870;28;20501;-74
2022/06/19 04:26:51;;;;;;;2.40;2.20;;;;;;;-143.84;43.04;44969.09;5029691;28;20458;-75
2022/06/19 04:29:19;;;;;;;2.10;2.00;;;;;;;-143.84;42.71;44965.28;5027988;28;20466;-75
2022/06/19 04:31:47;;;;;;;4.37;2.70;;;;;;;-143.84;41.90;44965.28;5028918;28;20490;-75
2022/06/19 04:34:14;;;;;;;2.53;2.07;;;;;;;-143.84;41.94;44967.19;5029179;28;20446;-75
2022/06/19 04:36:41;;;;;;;2.53;2.23;;;;;;;-143.84;41.53;44980.53;5028591;28;20446;-75
2022/06/19 04:39:09;;;;;;;3.00;2.07;;;;;;;-143.84;41.90;44965.28;5024858;28;20450;-75
2022/06/19 04:41:37;;;;;;;3.20;2.90;;;;;;;-143.84;40.91;44967.19;5029457;28;20446;-75
2022/06/19 04:44:06;;;;;;;3.30;2.13;;;;;;;-143.84;40.77;44953.88;5029409;28;20443;-75
2022/06/19 04:46:36;;;;;;;2.97;2.80;;;;;;;-143.84;40.88;44948.16;5029233;28;20438;-75
2022/06/19 04:49:04;;;;;;;2.37;2.10;;;;;;;-143.84;40.78;44980.53;5029050;28;20442;-75
2022/06/19 04:51:31;;;;;;;2.57;2.30;;;;;;;-143.84;40.84;44965.28;5029009;28;20442;-75
2022/06/19 04:53:58;;;;;;;2.43;2.23;;;;;;;-143.84;41.19;44972.91;5029099;28;20829;-75
2022/06/19 04:56:25;;;;;;;11.87;2.63;;;;;;;-143.84;41.37;44950.06;5025983;28;20459;-75
2022/06/19 04:58:52;;;;;;;2.10;1.87;;;;;;;-143.84;40.77;44955.75;5008976;28;20505;-75
2022/06/19 05:01:26;;;;;;;8.20;2.57;;;;;;;-143.84;41.19;44984.31;5009514;28;20439;-74
2022/06/19 05:03:58;;;;;;;2.63;2.43;;;;;;;-143.84;41.49;44950.06;5009043;28;20431;-75
2022/06/19 05:06:26;;;;;;;4.30;2.93;;;;;;;-143.84;41.37;44913.88;5009355;28;20452;-75
2022/06/19 05:08:54;;;;;;;4.17;2.67;;;;;;;-143.84;41.31;44948.16;5009481;28;20451;-74
2022/06/19 05:11:23;;;;;;;4.00;2.30;;;;;;;-143.84;40.88;44931.00;5008605;28;20448;-74
2022/06/19 05:13:50;;;;;;;6.43;2.50;;;;;;;-143.84;40.30;44967.19;5008636;28;21079;-74
2022/06/19 05:16:21;;;;;;;5.00;2.33;;;;;;;-143.84;40.48;44940.53;5008929;28;20436;-75
2022/06/19 05:18:50;;;;;;;6.50;2.30;;;;;;;-143.84;40.28;44940.53;5024105;28;20494;-74
2022/06/19 05:21:19;;;;;;;11.10;2.43;;;;;;;-143.84;39.62;44934.81;5028501;28;20490;-75
2022/06/19 05:23:48;;;;;;;2.03;1.93;;;;;;;-143.84;38.84;44921.50;5028695;28;20965;-75
2022/06/19 05:26:17;;;;;;;4.50;2.23;;;;;;;-143.84;39.12;44915.78;5028513;28;20485;-74
2022/06/19 05:28:45;;;;;;;6.73;2.93;;;;;;;-143.84;38.89;44923.41;5027988;28;20447;-74
2022/06/19 05:31:13;;;;;;;3.47;2.70;;;;;;;-143.84;38.99;44959.56;5029036;28;20431;-74
2022/06/19 05:33:40;;;;;;;2.30;2.10;;;;;;;-143.84;38.47;44965.28;5028287;28;20470;-74
2022/06/19 05:36:07;;;;;;;2.30;2.20;;;;;;;-143.84;38.42;44927.19;5028185;28;21326;-75
2022/06/19 05:38:36;;;;;;;5.40;2.57;;;;;;;-143.84;39.00;44931.00;5028700;28;20486;-75
2022/06/19 05:41:04;;;;;;;5.37;2.37;;;;;;;-143.84;38.65;44931.00;5028361;28;20937;-75
2022/06/19 05:43:33;;;;;;;2.33;2.13;;;;;;;-143.84;38.50;44925.31;5028194;28;20446;-74
2022/06/19 05:46:02;;;;;;;2.57;2.37;;;;;;;-143.84;38.83;44940.53;5028320;28;20505;-74
2022/06/19 05:48:31;;;;;;;3.90;2.43;;;;;;;-143.84;37.98;44923.41;5028334;28;20447;-74
2022/06/19 05:50:59;;;;;;;2.80;2.60;;;;;;;-143.84;37.30;44908.16;5028624;28;20937;-75
2022/06/19 05:53:27;;;;;;;3.57;2.30;;;;;;;-143.84;37.48;44915.78;5028565;28;20526;-74
2022/06/19 05:55:56;;;;;;;4.40;2.33;;;;;;;-143.84;37.78;44944.34;5028290;28;20493;-74
2022/06/19 05:58:24;;;;;;;3.90;2.43;;;;;;;-143.84;37.10;44900.53;5028022;28;20419;-74
2022/06/19 06:00:51;;;;;;;3.70;2.53;;;;;;;-143.84;36.79;44919.59;5028018;28;20501;-74
2022/06/19 06:03:21;;;;;;;9.90;2.30;;;;;;;-143.84;37.06;44921.50;5028272;28;20446;-75
2022/06/19 06:05:49;;;;;;;2.53;2.33;;;;;;;-143.84;36.91;44906.25;5028802;28;20435;-75
2022/06/19 06:08:18;;;;;;;3.87;2.30;;;;;;;-143.84;36.58;44896.75;5028772;28;20466;-75
2022/06/19 06:10:45;;;;;;;3.67;2.00;;;;;;;-143.84;36.24;44917.69;5027987;28;20439;-74
2022/06/19 06:13:14;;;;;;;3.60;2.43;;;;;;;-143.84;36.46;44913.88;5023259;28;20473;-75
2022/06/19 06:15:41;;;;;;;5.17;2.20;;;;;;;-143.84;35.72;44911.97;5025287;28;20438;-75
2022/06/19 06:18:08;;;;;;;2.10;2.00;;;;;;;-143.84;35.67;44932.91;5027852;28;20443;-75
2022/06/19 06:20:36;;;;;;;3.80;2.67;;;;;;;-143.84;35.76;44889.13;5026810;28;20434;-75
2022/06/19 06:23:03;;;;;;;5.37;1.90;;;;;;;-143.84;35.47;44894.84;5028059;28;20446;-75
2022/06/19 06:25:30;;;;;;;4.40;2.40;;;;;;;-143.84;35.55;44896.75;5031479;28;20540;-74
2022/06/19 06:27:57;;;;;;;2.70;1.93;;;;;;;-143.84;35.40;44889.13;5030675;28;20457;-75
2022/06/19 06:30:26;;;;;;;4.43;2.13;;;;;;;-143.84;35.22;44904.34;5031136;28;20423;-74
2022/06/19 06:32:54;;;;;;;2.60;2.50;;;;;;;-143.84;35.03;44881.50;5030925;28;20496;-75
2022/06/19 06:35:21;;;;;;;8.10;2.30;;;;;;;-143.84;35.51;44896.75;5031002;28;20438;-75
2022/06/19 06:37:48;;;;;;;6.10;1.90;;;;;;;-143.84;33.92;44881.50;5031396;28;20512;-75
2022/06/19 06:40:15;;;;;;;2.60;2.43;;;;;;;-143.84;34.65;44881.50;5030397;28;20466;-75
2022/06/19 06:42:45;;;;;;;2.43;2.23;;;;;;;-143.84;34.68;44902.44;5031086;28;20508;-75
2022/06/19 06:45:13;;;;;;;3.30;2.63;;;;;;;-143.84;34.54;44889.13;5031324;28;20454;-79
2022/06/19 06:47:42;;;;;;;3.27;2.10;;;;;;;-143.84;34.70;44868.19;5031778;28;20495;-78
2022/06/19 06:50:10;;;;;;;2.40;2.20;;;;;;;-143.84;34.66;44864.38;5032297;28;20929;-78
2022/06/19 06:52:37;;;;;;;4.80;2.53;;;;;;;-143.84;33.80;44870.09;5031347;28;20524;-78
2022/06/19 06:55:05;;;;;;;2.27;2.17;;;;;;;-143.84;33.77;44843.44;5031393;28;21031;-78
2022/06/19 06:57:32;;;;;;;8.83;2.23;;;;;;;-143.84;33.29;44871.97;5031099;28;20426;-78
2022/06/19 07:00:00;;;;;;;3.50;1.93;;;;;;;-143.84;33.60;44852.94;5031722;28;20441;-78
2022/06/19 07:02:27;;;;;;;5.07;2.23;;;;;;;-143.84;33.74;44868.19;5031212;28;21004;-78
2022/06/19 07:04:56;;;;;;;3.10;2.17;;;;;;;-143.84;33.93;44875.78;5031634;28;20443;-78
2022/06/19 07:07:24;;;;;;;2.27;2.07;;;;;;;-143.84;33.00;44860.56;5031796;28;20435;-77
2022/06/19 07:09:51;;;;;;;3.43;2.30;;;;;;;-143.84;32.29;44851.03;5031221;28;20811;-77
2022/06/19 07:12:18;;;;;;;2.00;1.90;;;;;;;-143.84;33.18;44854.84;5030413;28;20526;-77
2022/06/19 07:14:45;;;;;;;3.00;1.77;;;;;;;-143.84;32.72;44866.28;5029666;28;20446;-78
2022/06/19 07:17:12;;;;;;;1.70;1.60;;;;;;;-143.84;32.88;44866.28;5027101;28;20454;-78
2022/06/19 07:19:40;;;;;;;3.07;2.03;;;;;;;-143.84;31.73;44843.44;5030811;28;20501;-77
2022/06/19 07:22:09;;;;;;;3.23;2.07;;;;;;;-143.84;31.92;44877.69;5030534;28;20494;-77
2022/06/19 07:24:37;;;;;;;2.00;1.80;;;;;;;-143.84;32.16;44854.84;5030774;28;20450;-78
2022/06/19 07:27:05;;;;;;;1.77;1.67;;;;;;;-143.84;32.40;44868.19;5030450;28;20493;-78
2022/06/19 07:29:32;;;;;;;8.30;1.40;;;;;;;-143.84;32.34;44870.09;5030572;28;20539;-78
2022/06/19 07:31:59;;;;;;;1.97;1.80;;;;;;;-143.84;31.97;44851.03;5029782;28;20789;-78
2022/06/19 07:34:27;;;;;;;8.33;2.07;;;;;;;-143.84;32.91;44862.47;5030270;28;20467;-79
2022/06/19 07:36:54;;;;;;;4.97;1.67;;;;;;;-143.84;32.72;44885.31;5031213;28;20439;-78
2022/06/19 07:39:23;;;;;;;1.57;1.47;;;;;;;-143.84;32.52;44894.84;5031164;28;20508;-78
2022/06/19 07:41:50;;;;;;;2.03;1.60;;;;;;;-143.84;32.03;44875.78;5030828;28;20442;-78
2022/06/19 07:44:17;;;;;;;2.00;1.53;;;;;;;-143.84;32.13;44885.31;5031007;28;20438;-79
2022/06/19 07:52:09;;;;;;;1.60;1.50;;;;;;;-143.84;31.64;44866.28;5030640;28;20415;-73
2022/06/19 07:54:38;;;;;;;7.33;2.00;;;;;;;-143.84;31.15;44904.34;5030098;28;20474;-72
2022/06/19 07:57:06;;;;;;;1.60;1.50;;;;;;;-143.84;32.26;44875.78;5029772;28;20434;-75
2022/06/19 07:59:33;;;;;;;1.73;1.63;;;;;;;-143.84;31.75;44866.28;5030136;28;20493;-77
2022/06/19 08:02:01;;;;;;;2.00;1.80;;;;;;;-143.84;31.61;44866.28;5029931;28;20453;-73
2022/06/19 08:04:28;;;;;;;4.73;1.83;;;;;;;-143.84;31.89;44847.22;5029868;28;20794;-73
2022/06/19 08:06:55;;;;;;;1.87;1.33;;;;;;;-143.84;32.43;44851.03;5029935;28;20439;-74
2022/06/19 08:09:22;;;;;;;2.60;1.67;;;;;;;-143.84;31.69;44868.19;5029741;28;20439;-75
2022/06/19 08:11:51;;;;;;;5.77;2.13;;;;;;;-143.84;31.81;44856.75;5029531;28;20439;-76
2022/06/19 08:14:18;;;;;;;3.70;1.63;;;;;;;-143.84;32.17;44877.69;5029703;28;20541;-75
2022/06/19 08:16:45;;;;;;;8.43;1.70;;;;;;;-143.84;33.25;44868.19;5029914;28;21348;-74
2022/06/19 08:19:12;;;;;;;1.43;1.33;;;;;;;-143.84;31.72;44862.47;5030018;28;21309;-73
2022/06/19 08:21:39;;;;;;;1.93;1.80;;;;;;;-143.84;31.67;44885.31;5030069;28;21248;-73
2022/06/19 08:24:07;;;;;;;3.20;1.63;;;;;;;-143.84;32.11;44885.31;5029781;28;20439;-75
2022/06/19 08:26:34;;;;;;;5.23;1.90;;;;;;;-143.84;32.75;44852.94;5028745;28;20457;-75
2022/06/19 08:29:03;;;;;;;2.10;2.00;;;;;;;-143.84;32.20;44902.44;5030711;28;20446;-75
2022/06/19 08:31:31;;;;;;;1.90;1.80;;;;;;;-143.84;32.88;44866.28;5028586;28;20454;-74
2022/06/19 08:33:58;;;;;;;5.10;2.00;;;;;;;-143.84;33.66;44873.88;5029390;28;20482;-73
2022/06/19 08:36:27;;;;;;;4.70;2.10;;;;;;;-143.84;33.27;44904.34;5029479;28;20430;-73
2022/06/19 08:38:57;;;;;;;2.53;1.90;;;;;;;-143.84;34.13;44892.94;5029094;28;20493;-72
2022/06/19 08:41:36;;;;;;;3.30;2.00;;;;;;;-143.84;33.20;44898.66;5008851;28;20502;-73
2022/06/19 08:44:25;;;;;;;1.97;1.87;;;;;;;-143.84;33.69;44904.34;5012197;28;21296;-73
2022/06/19 08:47:00;;;;;;;6.30;2.50;;;;;;;-143.84;34.48;44892.94;5003748;28;20441;-74
2022/06/19 08:49:42;;;;;;;3.40;2.40;;;;;;;-143.84;34.34;44885.31;5007826;28;20474;-73
2022/06/19 08:52:22;;;;;;;2.67;2.47;;;;;;;-143.84;33.65;44851.03;5009000;28;20452;-72
2022/06/19 08:55:03;;;;;;;7.73;2.07;;;;;;;-143.84;33.25;44894.84;5005370;28;20883;-74
2022/06/19 08:57:42;;;;;;;3.20;2.70;;;;;;;-143.84;33.62;44862.47;5008280;28;20449;-73
2022/06/19 09:00:16;;;;;;;2.97;2.80;;;;;;;-143.84;33.94;44904.34;5016254;28;20459;-72
2022/06/19 09:02:53;;;;;;;2.20;1.97;;;;;;;-143.84;34.20;44881.50;5008816;28;20453;-76
2022/06/19 09:05:37;;;;;;;4.13;2.10;;;;;;;-143.84;34.54;44915.78;5009563;28;20466;-75
2022/06/19 09:08:27;;;;;;;2.43;2.23;;;;;;;-143.84;34.74;44889.13;5009073;28;20451;-76
2022/06/19 09:11:04;;;;;;;7.23;2.53;;;;;;;-143.84;35.50;44894.84;4992118;28;20456;-75
2022/06/19 09:13:53;;;;;;;4.50;2.50;;;;;;;-143.84;35.73;44932.91;5009145;28;20475;-75
2022/06/19 09:16:33;;;;;;;2.83;2.63;;;;;;;-143.84;34.77;44934.81;5009338;28;20424;-76
2022/06/19 09:19:11;;;;;;;3.00;2.60;;;;;;;-143.84;35.22;44932.91;5017323;28;20435;-75
2022/06/19 09:21:49;;;;;;;4.10;2.50;;;;;;;-143.84;35.86;44908.16;5016050;28;20482;-75
2022/06/19 09:24:33;;;;;;;9.67;2.50;;;;;;;-143.84;36.02;44931.00;5006747;28;20459;-75
2022/06/19 09:27:02;;;;;;;2.20;2.00;;;;;;;-143.84;35.81;44917.69;5012171;28;20461;-75
2022/06/19 09:29:35;;;;;;;6.73;1.80;;;;;;;-143.84;35.61;44902.44;5010435;28;20442;-76
2022/06/19 09:32:11;;;;;;;2.83;2.40;;;;;;;-143.84;35.50;44929.09;5013584;28;20451;-75
2022/06/19 09:34:43;;;;;;;3.40;2.10;;;;;;;-143.84;35.93;44919.59;5013695;28;21004;-75
2022/06/19 09:37:15;;;;;;;4.40;2.17;;;;;;;-143.84;36.49;44910.06;5018076;28;20443;-75
2022/06/19 09:39:49;;;;;;;3.43;2.40;;;;;;;-143.84;36.53;44902.44;5015413;28;20486;-75
2022/06/19 09:42:20;;;;;;;3.20;2.90;;;;;;;-143.84;38.78;44908.16;5012800;28;20446;-75
2022/06/19 09:44:54;;;;;;;3.53;2.60;;;;;;;-143.84;39.29;44927.19;5007467;28;20455;-75
2022/06/19 09:47:30;;;;;;;2.30;2.20;;;;;;;-143.84;39.02;44908.16;5007195;28;20440;-75
2022/06/19 09:50:03;;;;;;;4.23;2.50;;;;;;;-143.84;38.89;44915.78;5007407;28;20474;-75
2022/06/19 09:52:36;;;;;;;2.90;2.20;;;;;;;-143.84;39.75;44908.16;4908782;29;20458;-75
2022/06/19 09:55:09;;;;;;;4.40;2.83;;;;;;;-143.84;38.59;44898.66;4905466;29;20494;-75
2022/06/19 09:57:42;;;;;;;7.27;2.50;;;;;;;-143.84;38.02;44883.41;5006677;28;20870;-75
2022/06/19 10:00:12;;;;;;;3.13;2.47;;;;;;;-143.84;36.74;44881.50;5009119;28;20443;-76
2022/06/19 10:02:46;;;;;;;2.43;2.07;;;;;;;-143.84;37.14;44910.06;5008317;28;20473;-75
2022/06/19 10:05:22;;;;;;;5.20;3.17;;;;;;;-143.84;38.06;44864.38;5008698;28;20473;-75
2022/06/19 10:07:54;;;;;;;2.20;2.10;;;;;;;-143.84;37.31;44877.69;5010486;28;20454;-71
2022/06/19 10:10:27;;;;;;;3.50;3.20;;;;;;;-143.84;37.46;44894.84;5010204;28;20859;-71
2022/06/19 10:12:57;;;;;;;2.33;2.00;;;;;;;-143.84;37.21;44877.69;5011051;28;20458;-70
2022/06/19 10:15:30;;;;;;;3.07;2.13;;;;;;;-143.84;38.09;44900.53;5010632;28;21320;-70
2022/06/19 10:18:05;;;;;;;5.83;1.87;;;;;;;-143.84;37.74;44870.09;5011508;28;20521;-71
2022/06/19 10:20:44;;;;;;;4.60;2.03;;;;;;;-143.84;38.45;44887.22;5011564;28;20505;-70
2022/06/19 10:23:22;;;;;;;2.73;2.53;;;;;;;-143.84;37.81;44887.22;5011447;28;20730;-70
2022/06/19 10:26:09;;;;;;;2.30;2.10;;;;;;;-143.84;38.58;44889.13;5009557;28;20467;-70
2022/06/19 10:29:04;;;;;;;2.40;2.13;;;;;;;-143.84;38.63;44911.97;5007732;28;20542;-70
2022/06/19 10:31:45;;;;;;;2.17;2.07;;;;;;;-143.84;38.49;44902.44;4979495;28;20439;-71
2022/06/19 10:34:23;;;;;;;2.73;2.43;;;;;;;-143.84;38.64;44892.94;5011159;28;20489;-71
2022/06/19 10:37:04;;;;;;;3.20;2.10;;;;;;;-143.84;38.42;44913.88;5009197;28;20471;-71
2022/06/19 10:39:45;;;;;;;2.93;2.70;;;;;;;-143.84;40.14;44904.34;5010324;28;20722;-71
2022/06/19 10:42:21;;;;;;;3.20;2.37;;;;;;;-143.84;38.93;44908.16;5009356;28;20447;-76
2022/06/19 10:45:03;;;;;;;4.40;2.00;;;;;;;-143.84;39.86;44892.94;5012546;28;20891;-73
2022/06/19 10:47:46;;;;;;;2.10;2.00;;;;;;;-143.84;40.50;44902.44;5011326;28;20450;-77
2022/06/19 10:50:32;;;;;;;2.40;2.30;;;;;;;-143.84;40.54;44911.97;5010786;28;20471;-77
2022/06/19 10:53:11;;;;;;;2.80;2.00;;;;;;;-143.84;40.71;44896.75;5009828;28;20460;-76
2022/06/19 10:55:45;;;;;;;7.50;2.40;;;;;;;-143.84;40.26;44881.50;5007699;28;21027;-71
2022/06/19 10:58:18;;;;;;;3.80;2.40;;;;;;;-143.84;40.40;44911.97;5010147;28;20459;-69
2022/06/19 11:00:50;;;;;;;1.90;1.80;;;;;;;-143.84;39.66;44934.81;5010575;28;20456;-72
2022/06/19 11:06:21;;;;;;;2.70;2.50;;;;;;;-143.84;39.67;44915.78;5007425;28;20473;-70
2022/06/19 11:08:54;;;;;;;4.87;2.60;;;;;;;-143.84;41.25;44908.16;5008594;28;20462;-71
2022/06/19 11:11:24;;;;;;;3.03;2.70;;;;;;;-143.84;40.94;44925.31;5010922;28;20455;-75
2022/06/19 11:14:07;;;;;;;5.97;2.13;;;;;;;-143.84;42.21;44906.25;5014966;28;20530;-76
2022/06/19 11:16:52;;;;;;;3.80;2.10;;;;;;;-143.84;42.26;44959.56;5010110;28;20518;-76
2022/06/19 11:19:33;;;;;;;5.87;2.77;;;;;;;-143.84;42.73;44921.50;5011987;28;20526;-81
2022/06/19 11:22:02;;;;;;;3.80;2.03;;;;;;;-143.84;43.52;44915.78;4956340;28;20518;-81
2022/06/19 11:24:33;;;;;;;7.60;2.47;;;;;;;-143.84;43.62;44927.19;4939455;29;20475;-81
2022/06/19 11:27:02;;;;;;;4.97;2.30;;;;;;;-143.84;42.63;44919.59;4931615;28;20998;-81
2022/06/19 11:33:37;;;;;;;9.10;2.30;;;;;;;-143.84;44.37;44955.75;5055373;27;1633189;-72
2022/06/19 11:36:08;;;;;;;2.53;2.33;;;;;;;-143.84;43.03;44957.66;5104693;28;20217;-72
2022/06/19 11:38:38;;;;;;;2.80;2.60;;;;;;;-143.84;43.73;44925.31;5106440;28;20435;-72
2022/06/19 11:41:17;;;;;;;2.23;2.03;;;;;;;-143.84;43.17;44934.81;5106130;28;20437;-72
2022/06/19 11:43:44;;;;;;;4.47;2.23;;;;;;;-143.84;44.93;44946.25;5103434;28;20458;-72
2022/06/19 11:46:16;;;;;;;3.57;2.50;;;;;;;-143.84;43.67;44957.66;5106489;28;20481;-72